Time;durP1;ratioP1;P1;durP2;ratioP2;P2;SDS_P1;SDS_P2;PMS_P1;PMS_P2;Temp;Humidity;BMP_temperature;BMP_pressure;BME280_temperature;BME280_humidity;BME280_pressure;Samples;Min_cycle;Max_cycle;Signal;HPM_P1;HPM_P2
2023/12/05 00:00:00;;;;;;;82.90;46.55;;;2.90;99.90;;;;;;5076242;28;20044;-75
2023/12/05 00:02:26;;;;;;;77.35;43.95;;;2.80;99.90;;;;;;5098723;28;20046;-75
2023/12/05 00:04:52;;;;;;;80.80;46.10;;;2.80;99.90;;;;;;5082284;28;20052;-74
2023/12/05 00:07:20;;;;;;;82.75;48.13;;;2.90;99.90;;;;;;5074817;28;20036;-74
2023/12/05 00:09:46;;;;;;;82.40;46.85;;;2.90;99.90;;;;;;5092071;28;20035;-75
2023/12/05 00:12:13;;;;;;;83.38;46.30;;;2.90;99.90;;;;;;5079743;27;20043;-75
2023/12/05 00:14:40;;;;;;;83.97;48.33;;;2.90;99.90;;;;;;5082452;28;20043;-75
2023/12/05 00:17:06;;;;;;;83.45;48.55;;;2.90;99.90;;;;;;5081372;28;20047;-74
2023/12/05 00:19:32;;;;;;;79.35;47.95;;;2.90;99.90;;;;;;5062349;28;20036;-75
2023/12/05 00:21:59;;;;;;;86.07;49.58;;;2.90;99.90;;;;;;5090734;28;20035;-75
2023/12/05 00:24:25;;;;;;;97.77;54.27;;;2.80;99.90;;;;;;5083100;28;20032;-75
2023/12/05 00:26:51;;;;;;;82.82;48.38;;;2.90;99.90;;;;;;5054638;28;21206;-74
2023/12/05 00:29:18;;;;;;;76.88;44.90;;;2.80;99.90;;;;;;5108690;27;20412;-75
2023/12/05 00:31:44;;;;;;;80.28;44.65;;;2.90;99.90;;;;;;5062838;28;20032;-74
2023/12/05 00:34:10;;;;;;;92.97;52.27;;;2.80;99.90;;;;;;5057706;28;20043;-75
2023/12/05 00:36:36;;;;;;;73.63;44.20;;;2.80;99.90;;;;;;5073249;28;20032;-75
2023/12/05 00:39:04;;;;;;;82.10;49.93;;;2.80;99.90;;;;;;5078823;28;20044;-74
2023/12/05 00:41:30;;;;;;;78.50;46.17;;;2.80;99.90;;;;;;5078412;28;20031;-74
2023/12/05 00:43:56;;;;;;;80.70;45.42;;;2.80;99.90;;;;;;5074301;28;20036;-75
2023/12/05 00:46:23;;;;;;;80.32;47.70;;;2.90;99.90;;;;;;5063111;28;20058;-76
2023/12/05 00:48:50;;;;;;;87.90;50.55;;;2.90;99.90;;;;;;5077991;28;20036;-76
2023/12/05 00:51:16;;;;;;;80.47;47.53;;;2.80;99.90;;;;;;5071212;28;20405;-76
2023/12/05 00:53:44;;;;;;;78.63;46.43;;;2.80;99.90;;;;;;5076154;28;20068;-76
2023/12/05 00:56:11;;;;;;;77.53;46.80;;;2.80;99.90;;;;;;5069779;28;20028;-76
2023/12/05 00:58:37;;;;;;;80.43;45.37;;;2.80;99.90;;;;;;5076188;28;20034;-76
2023/12/05 01:01:04;;;;;;;82.60;45.63;;;2.80;99.90;;;;;;5078517;28;20036;-75
2023/12/05 01:03:30;;;;;;;82.63;44.17;;;2.80;99.90;;;;;;5076454;28;20032;-76
2023/12/05 01:05:56;;;;;;;87.57;46.88;;;2.80;99.90;;;;;;5071504;28;20221;-76
2023/12/05 01:08:23;;;;;;;79.10;43.28;;;2.90;99.90;;;;;;5072779;28;20506;-76
2023/12/05 01:10:49;;;;;;;75.15;42.83;;;2.90;99.90;;;;;;5080690;28;20035;-76
2023/12/05 01:13:15;;;;;;;90.03;47.83;;;2.90;99.90;;;;;;5072107;28;20035;-76
2023/12/05 01:15:42;;;;;;;87.72;46.65;;;2.80;99.90;;;;;;5058098;28;20047;-77
2023/12/05 01:18:08;;;;;;;85.88;45.63;;;2.80;99.90;;;;;;5076165;28;20370;-76
2023/12/05 01:20:34;;;;;;;102.10;50.57;;;2.80;99.90;;;;;;5074209;28;20482;-74
2023/12/05 01:23:01;;;;;;;87.68;46.17;;;2.90;99.90;;;;;;5077992;28;20032;-76
2023/12/05 01:25:27;;;;;;;100.45;53.45;;;2.90;99.90;;;;;;5075915;28;20031;-76
2023/12/05 01:27:55;;;;;;;91.50;49.08;;;2.90;99.90;;;;;;5079563;28;20359;-77
2023/12/05 01:30:21;;;;;;;90.20;47.28;;;2.90;99.90;;;;;;5091794;28;20031;-76
2023/12/05 01:32:48;;;;;;;90.67;48.57;;;2.90;99.90;;;;;;5071159;28;20040;-77
2023/12/05 01:35:14;;;;;;;86.97;49.00;;;2.90;99.90;;;;;;5085922;28;20325;-77
2023/12/05 01:37:40;;;;;;;104.17;54.13;;;2.90;99.90;;;;;;5069444;28;20490;-75
2023/12/05 01:40:09;;;;;;;99.85;53.20;;;2.80;99.90;;;;;;5100680;28;20501;-77
2023/12/05 01:42:38;;;;;;;80.53;44.35;;;2.80;99.90;;;;;;5080398;28;20059;-76
2023/12/05 01:45:07;;;;;;;91.38;50.97;;;2.90;99.90;;;;;;5055080;28;20039;-76
2023/12/05 01:47:35;;;;;;;98.27;51.23;;;2.90;99.90;;;;;;5088544;28;20028;-75
2023/12/05 01:50:04;;;;;;;94.57;49.33;;;2.80;99.90;;;;;;5053607;28;20043;-77
2023/12/05 01:52:31;;;;;;;99.15;51.50;;;2.80;99.90;;;;;;5069088;28;20042;-76
2023/12/05 01:54:57;;;;;;;86.60;48.72;;;2.80;99.90;;;;;;5071870;28;20394;-77
2023/12/05 01:57:24;;;;;;;94.20;48.77;;;2.80;99.90;;;;;;5071950;28;20141;-77
2023/12/05 01:59:52;;;;;;;104.32;52.92;;;2.80;99.90;;;;;;5095044;28;20032;-77
2023/12/05 02:02:19;;;;;;;86.95;46.58;;;2.80;99.90;;;;;;5069900;28;20035;-77
2023/12/05 02:04:45;;;;;;;97.37;51.70;;;2.80;99.90;;;;;;5063673;28;20032;-76
2023/12/05 02:07:13;;;;;;;96.27;51.23;;;2.80;99.90;;;;;;5071566;28;20063;-77
2023/12/05 02:09:39;;;;;;;90.40;46.53;;;2.80;99.90;;;;;;5080412;28;20453;-76
2023/12/05 02:12:06;;;;;;;89.93;48.83;;;2.80;99.90;;;;;;5072087;28;20410;-77
2023/12/05 02:14:32;;;;;;;107.43;54.17;;;2.90;99.90;;;;;;5070408;28;20251;-75
2023/12/05 02:17:09;;;;;;;83.28;45.92;;;2.90;99.90;;;;;;5076389;28;20083;-76
2023/12/05 02:19:54;;;;;;;97.90;50.60;;;2.90;99.90;;;;;;5068696;28;20032;-76
2023/12/05 02:22:26;;;;;;;95.18;49.92;;;2.80;99.90;;;;;;5074388;28;20047;-77
2023/12/05 02:25:23;;;;;;;101.68;51.58;;;2.80;99.90;;;;;;5055413;28;20050;-75
2023/12/05 02:27:50;;;;;;;96.88;49.60;;;2.80;99.90;;;;;;5074338;28;20043;-75
2023/12/05 02:30:17;;;;;;;96.53;48.80;;;2.80;99.90;;;;;;5075257;28;20363;-77
2023/12/05 02:32:44;;;;;;;96.30;48.27;;;2.80;99.90;;;;;;5097775;28;20398;-75
2023/12/05 02:35:11;;;;;;;105.55;53.53;;;2.80;99.90;;;;;;5083520;28;20062;-76
2023/12/05 02:38:05;;;;;;;102.05;48.80;;;2.80;99.90;;;;;;5070298;28;20038;-77
2023/12/05 02:40:43;;;;;;;108.47;53.93;;;2.80;99.90;;;;;;5059827;28;20039;-74
2023/12/05 02:43:15;;;;;;;109.13;50.72;;;2.80;99.90;;;;;;5074155;28;20046;-76
2023/12/05 02:45:46;;;;;;;106.88;53.95;;;2.80;99.90;;;;;;5040366;28;20456;-77
2023/12/05 02:48:13;;;;;;;102.50;50.28;;;2.80;99.90;;;;;;5070601;28;20042;-77
2023/12/05 02:50:40;;;;;;;111.68;53.58;;;2.80;99.90;;;;;;5071022;28;20515;-77
2023/12/05 02:53:06;;;;;;;101.65;48.58;;;2.70;99.90;;;;;;5080784;28;20039;-77
2023/12/05 02:55:33;;;;;;;97.37;48.33;;;2.80;99.90;;;;;;5092942;28;20048;-75
2023/12/05 02:57:59;;;;;;;105.63;51.10;;;2.70;99.90;;;;;;5097430;28;20507;-76
2023/12/05 03:00:25;;;;;;;98.77;47.97;;;2.70;99.90;;;;;;5095291;28;20032;-77
2023/12/05 03:02:51;;;;;;;96.07;47.40;;;2.70;99.90;;;;;;5047017;28;20032;-76
2023/12/05 03:05:18;;;;;;;101.77;51.90;;;2.70;99.90;;;;;;5080821;28;20498;-77
2023/12/05 03:07:44;;;;;;;108.47;50.10;;;2.70;99.90;;;;;;5080341;28;20031;-76
2023/12/05 03:10:10;;;;;;;110.73;52.60;;;2.70;99.90;;;;;;5054210;28;20043;-76
2023/12/05 03:12:37;;;;;;;99.93;50.38;;;2.60;99.90;;;;;;5103806;27;20043;-77
2023/12/05 03:15:03;;;;;;;110.70;52.80;;;2.60;99.90;;;;;;5076749;28;20044;-78
2023/12/05 03:17:30;;;;;;;109.75;52.72;;;2.70;99.90;;;;;;5075306;28;20390;-78
2023/12/05 03:19:57;;;;;;;95.77;46.67;;;2.60;99.90;;;;;;5096375;28;20533;-77
2023/12/05 03:22:23;;;;;;;102.72;47.97;;;2.60;99.90;;;;;;5054492;28;20031;-79
2023/12/05 03:24:50;;;;;;;102.75;49.33;;;2.60;99.90;;;;;;5092696;28;20400;-76
2023/12/05 03:27:16;;;;;;;100.05;48.55;;;2.60;99.90;;;;;;5072275;28;20031;-77
2023/12/05 03:29:43;;;;;;;121.13;52.60;;;2.60;99.90;;;;;;5079295;28;20047;-78
2023/12/05 03:32:10;;;;;;;90.68;45.95;;;2.60;99.90;;;;;;5110521;27;20378;-76
2023/12/05 03:34:36;;;;;;;96.45;46.10;;;2.60;99.90;;;;;;5076614;28;20055;-78
2023/12/05 03:37:02;;;;;;;116.95;55.28;;;2.60;99.90;;;;;;5077634;28;20043;-78
2023/12/05 03:39:29;;;;;;;100.03;47.83;;;2.60;99.90;;;;;;5075133;28;20043;-78
2023/12/05 03:41:55;;;;;;;112.80;51.07;;;2.60;99.90;;;;;;5072418;28;20397;-77
2023/12/05 03:44:21;;;;;;;105.28;49.67;;;2.60;99.90;;;;;;5091025;28;20055;-78
2023/12/05 03:46:48;;;;;;;95.47;46.97;;;2.60;99.90;;;;;;5077100;28;20031;-76
2023/12/05 03:49:14;;;;;;;121.65;54.80;;;2.60;99.90;;;;;;5059040;28;20032;-79
2023/12/05 03:51:40;;;;;;;109.75;51.17;;;2.60;99.90;;;;;;5087924;28;20038;-79
2023/12/05 03:54:07;;;;;;;93.27;46.17;;;2.60;99.90;;;;;;5071236;28;20043;-75
2023/12/05 03:56:34;;;;;;;106.05;47.63;;;2.60;99.90;;;;;;5076597;28;20035;-78
2023/12/05 03:59:00;;;;;;;92.63;47.50;;;2.60;99.90;;;;;;5078103;28;20036;-78
2023/12/05 04:01:26;;;;;;;101.33;49.17;;;2.60;99.90;;;;;;5071301;28;20031;-80
2023/12/05 04:03:53;;;;;;;109.93;48.63;;;2.60;99.90;;;;;;5067876;28;20039;-74
2023/12/05 04:06:21;;;;;;;124.00;55.08;;;2.60;99.90;;;;;;5072310;28;20027;-76
2023/12/05 04:08:48;;;;;;;113.97;52.22;;;2.60;99.90;;;;;;5074800;28;20395;-78
2023/12/05 04:11:15;;;;;;;93.27;45.20;;;2.60;99.90;;;;;;5081304;28;20517;-78
2023/12/05 04:13:42;;;;;;;97.90;44.83;;;2.60;99.90;;;;;;5079000;28;20036;-79
2023/12/05 04:16:09;;;;;;;95.03;44.40;;;2.60;99.90;;;;;;5083334;28;20031;-78
2023/12/05 04:18:35;;;;;;;91.60;42.53;;;2.70;99.90;;;;;;5078612;28;20027;-78
2023/12/05 04:21:02;;;;;;;106.87;50.07;;;2.60;99.90;;;;;;5071761;28;20036;-76
2023/12/05 04:23:28;;;;;;;93.90;43.60;;;2.70;99.90;;;;;;5079189;28;20478;-78
2023/12/05 04:25:54;;;;;;;97.63;43.50;;;2.70;99.90;;;;;;5072451;28;20036;-78
2023/12/05 04:28:21;;;;;;;109.22;49.85;;;2.70;99.90;;;;;;5089243;28;20039;-77
2023/12/05 04:30:47;;;;;;;110.93;49.47;;;2.60;99.90;;;;;;5093654;28;20031;-78
2023/12/05 04:33:13;;;;;;;114.77;46.87;;;2.70;99.90;;;;;;5093370;27;20036;-78
2023/12/05 04:35:39;;;;;;;101.10;45.05;;;2.70;99.90;;;;;;5110025;27;20036;-77
2023/12/05 04:38:06;;;;;;;117.18;49.25;;;2.70;99.90;;;;;;5056921;28;20035;-78
2023/12/05 04:40:32;;;;;;;105.45;46.30;;;2.70;99.90;;;;;;5082489;28;20036;-76
2023/12/05 04:42:58;;;;;;;128.48;53.00;;;2.70;99.90;;;;;;5078049;28;20478;-79
2023/12/05 04:45:25;;;;;;;103.82;47.30;;;2.70;99.90;;;;;;5098752;28;20043;-79
2023/12/05 04:47:51;;;;;;;110.60;46.43;;;2.70;99.90;;;;;;5078563;28;20415;-78
2023/12/05 04:50:17;;;;;;;109.53;46.03;;;2.70;99.90;;;;;;5077188;28;20125;-79
2023/12/05 04:52:44;;;;;;;87.75;40.17;;;2.70;99.90;;;;;;5076371;28;20036;-78
2023/12/05 04:55:10;;;;;;;106.38;46.83;;;2.70;99.90;;;;;;5058079;28;20044;-79
2023/12/05 04:57:36;;;;;;;115.00;48.60;;;2.70;99.90;;;;;;5066632;28;20499;-77
2023/12/05 05:00:05;;;;;;;100.37;44.87;;;2.70;99.90;;;;;;5074510;28;20341;-79
2023/12/05 05:02:32;;;;;;;100.78;44.47;;;2.70;99.90;;;;;;5097604;28;20039;-77
2023/12/05 05:04:58;;;;;;;101.47;44.08;;;2.70;99.90;;;;;;5074034;28;20046;-78
2023/12/05 05:07:24;;;;;;;109.73;45.33;;;2.70;99.90;;;;;;5080382;28;20502;-79
2023/12/05 05:09:52;;;;;;;93.10;43.10;;;2.70;99.90;;;;;;5092490;28;20036;-79
2023/12/05 05:12:18;;;;;;;99.53;42.88;;;2.70;99.90;;;;;;5070494;28;20039;-79
2023/12/05 05:14:44;;;;;;;101.28;44.25;;;2.70;99.90;;;;;;5089028;28;20450;-77
2023/12/05 05:17:11;;;;;;;106.72;47.22;;;2.70;99.90;;;;;;5069008;28;20122;-78
2023/12/05 05:19:37;;;;;;;106.93;48.43;;;2.70;99.90;;;;;;5072417;28;20508;-77
2023/12/05 05:22:04;;;;;;;107.20;48.70;;;2.70;99.90;;;;;;5071714;28;20473;-77
2023/12/05 05:24:30;;;;;;;98.45;43.40;;;2.70;99.90;;;;;;5081455;28;20032;-77
2023/12/05 05:26:56;;;;;;;89.23;39.93;;;2.70;99.90;;;;;;5082110;28;20051;-77
2023/12/05 05:29:23;;;;;;;89.90;42.83;;;2.70;99.90;;;;;;5092972;28;20043;-77
2023/12/05 05:31:49;;;;;;;98.30;44.53;;;2.70;99.90;;;;;;5053003;28;20032;-79
2023/12/05 05:34:16;;;;;;;86.13;41.23;;;2.70;99.90;;;;;;5059634;28;20040;-78
2023/12/05 05:36:42;;;;;;;94.68;42.83;;;2.70;99.90;;;;;;5077678;28;20050;-79
2023/12/05 05:39:08;;;;;;;93.97;42.40;;;2.70;99.90;;;;;;5105410;27;20463;-78
2023/12/05 05:41:35;;;;;;;97.87;45.70;;;2.70;99.90;;;;;;5077081;28;20505;-77
2023/12/05 05:44:01;;;;;;;88.57;40.38;;;2.70;99.90;;;;;;5069880;28;20518;-78
2023/12/05 05:46:27;;;;;;;94.50;44.00;;;2.70;99.90;;;;;;5107319;27;20039;-78
2023/12/05 05:48:54;;;;;;;89.90;39.97;;;2.70;99.90;;;;;;5073835;28;20047;-80
2023/12/05 05:51:20;;;;;;;103.13;48.00;;;2.70;99.90;;;;;;5073457;28;20442;-78
2023/12/05 05:53:46;;;;;;;90.73;44.00;;;2.70;99.90;;;;;;5060985;28;20039;-78
2023/12/05 05:56:13;;;;;;;107.93;46.70;;;2.70;99.90;;;;;;5069244;27;20046;-77
2023/12/05 05:58:39;;;;;;;101.80;44.80;;;2.70;99.90;;;;;;5088065;28;20469;-78
2023/12/05 06:01:05;;;;;;;91.13;42.97;;;2.70;99.90;;;;;;5063838;28;20509;-77
2023/12/05 06:03:32;;;;;;;92.88;43.47;;;2.70;99.90;;;;;;5097885;28;20036;-75
2023/12/05 06:06:01;;;;;;;93.72;42.63;;;2.70;99.90;;;;;;5082108;28;20051;-78
2023/12/05 06:08:27;;;;;;;87.25;42.05;;;2.70;99.90;;;;;;5067138;28;20043;-79
2023/12/05 06:10:53;;;;;;;91.38;40.60;;;2.70;99.90;;;;;;5092881;28;20050;-80
2023/12/05 06:13:20;;;;;;;91.33;43.17;;;2.70;99.90;;;;;;5053951;28;20032;-77
2023/12/05 06:15:46;;;;;;;92.80;40.35;;;2.70;99.90;;;;;;5088463;28;20044;-77
2023/12/05 06:18:15;;;;;;;93.73;44.63;;;2.70;99.90;;;;;;5098500;28;20107;-75
2023/12/05 06:20:42;;;;;;;92.67;44.73;;;2.70;99.90;;;;;;5060994;28;20032;-79
2023/12/05 06:23:09;;;;;;;91.82;43.13;;;2.70;99.90;;;;;;5075534;28;20045;-77
2023/12/05 06:25:35;;;;;;;93.43;39.88;;;2.70;99.90;;;;;;5078636;27;20040;-78
2023/12/05 06:28:02;;;;;;;90.55;42.20;;;2.80;99.90;;;;;;5091750;28;20026;-79
2023/12/05 06:30:28;;;;;;;85.40;39.60;;;2.70;99.90;;;;;;5078768;28;20032;-79
2023/12/05 06:32:54;;;;;;;87.30;40.70;;;2.80;99.90;;;;;;5065506;28;20035;-79
2023/12/05 06:35:21;;;;;;;93.38;42.13;;;2.80;99.90;;;;;;5073296;28;20028;-79
2023/12/05 06:37:47;;;;;;;82.00;38.80;;;2.80;99.90;;;;;;5071182;28;20047;-77
2023/12/05 06:40:14;;;;;;;99.70;43.73;;;2.80;99.90;;;;;;5070026;28;20038;-77
2023/12/05 06:42:40;;;;;;;91.97;42.07;;;2.80;99.90;;;;;;5084145;28;20040;-79
2023/12/05 06:45:07;;;;;;;92.97;42.38;;;2.70;99.90;;;;;;5091923;28;20542;-76
2023/12/05 06:47:34;;;;;;;91.80;42.95;;;2.80;99.90;;;;;;5088537;28;20058;-77
2023/12/05 06:50:04;;;;;;;107.63;46.10;;;2.70;99.90;;;;;;5107887;27;20377;-77
2023/12/05 06:52:30;;;;;;;104.47;47.17;;;2.80;99.90;;;;;;5091573;28;20040;-77
2023/12/05 06:54:56;;;;;;;108.57;45.85;;;2.70;99.90;;;;;;5091318;28;20513;-78
2023/12/05 06:57:23;;;;;;;103.30;47.22;;;2.70;99.90;;;;;;5072422;28;20039;-78
2023/12/05 06:59:50;;;;;;;95.22;43.17;;;2.80;99.90;;;;;;5092458;28;20039;-79
2023/12/05 07:02:16;;;;;;;98.37;42.10;;;2.80;99.90;;;;;;5063282;28;20028;-79
2023/12/05 07:04:43;;;;;;;105.00;47.53;;;2.80;99.90;;;;;;5073823;28;20066;-79
2023/12/05 07:07:10;;;;;;;90.60;41.53;;;2.70;99.90;;;;;;5076395;28;20043;-78
2023/12/05 07:09:36;;;;;;;99.93;44.33;;;2.80;99.90;;;;;;5057246;28;20035;-79
2023/12/05 07:12:02;;;;;;;117.03;49.80;;;2.80;99.90;;;;;;5067422;28;20058;-78
2023/12/05 07:14:29;;;;;;;95.82;45.33;;;2.70;99.90;;;;;;5082632;28;20035;-79
2023/12/05 07:16:55;;;;;;;126.47;53.47;;;2.70;99.90;;;;;;5059336;28;20060;-79
2023/12/05 07:19:21;;;;;;;105.77;48.90;;;2.70;99.90;;;;;;5059170;28;20039;-76
2023/12/05 07:21:47;;;;;;;113.90;50.00;;;2.70;99.90;;;;;;5071982;28;20040;-77
2023/12/05 07:24:14;;;;;;;112.07;49.03;;;2.70;99.90;;;;;;5060759;28;20418;-79
2023/12/05 07:26:40;;;;;;;105.45;43.88;;;2.70;99.90;;;;;;5093476;28;20032;-79
2023/12/05 07:29:07;;;;;;;120.47;51.13;;;2.70;99.90;;;;;;5067280;28;20043;-79
2023/12/05 07:31:35;;;;;;;108.60;47.37;;;2.70;99.90;;;;;;5050452;28;20483;-80
2023/12/05 07:34:01;;;;;;;103.27;46.80;;;2.70;99.90;;;;;;5073775;28;20510;-79
2023/12/05 07:36:27;;;;;;;109.18;47.05;;;2.70;99.90;;;;;;5109031;27;20035;-79
2023/12/05 07:38:53;;;;;;;108.38;47.55;;;2.70;99.90;;;;;;5076234;28;20384;-79
2023/12/05 07:41:22;;;;;;;128.90;54.58;;;2.70;99.90;;;;;;5103912;28;20493;-79
2023/12/05 07:43:51;;;;;;;112.75;50.42;;;2.70;99.90;;;;;;5092401;28;20044;-79
2023/12/05 07:46:18;;;;;;;117.23;51.87;;;2.70;99.90;;;;;;5082762;28;20495;-79
2023/12/05 07:48:44;;;;;;;122.25;51.63;;;2.60;99.90;;;;;;5088475;28;20036;-80
2023/12/05 07:51:17;;;;;;;112.72;47.47;;;2.60;99.90;;;;;;5062308;28;20429;-79
2023/12/05 07:53:50;;;;;;;113.88;48.88;;;2.60;99.90;;;;;;5089901;28;20035;-80
2023/12/05 07:56:16;;;;;;;121.05;49.13;;;2.60;99.90;;;;;;5070320;28;20040;-79
2023/12/05 07:58:43;;;;;;;124.95;50.70;;;2.60;99.90;;;;;;5080137;28;20047;-78
2023/12/05 08:01:09;;;;;;;141.20;53.60;;;2.60;99.90;;;;;;5084229;28;20339;-75
2023/12/05 08:03:35;;;;;;;118.83;50.53;;;2.60;99.90;;;;;;5099367;28;20032;-76
2023/12/05 08:06:02;;;;;;;131.53;55.00;;;2.60;99.90;;;;;;5072858;28;20043;-78
2023/12/05 08:08:34;;;;;;;122.23;52.13;;;2.60;99.90;;;;;;5113241;27;20032;-79
2023/12/05 08:11:00;;;;;;;109.53;47.00;;;2.60;99.90;;;;;;5074814;28;20512;-77
2023/12/05 08:13:28;;;;;;;130.95;51.80;;;2.60;99.90;;;;;;5094783;28;20051;-77
2023/12/05 08:15:54;;;;;;;114.43;47.70;;;2.60;99.90;;;;;;5075878;28;20051;-78
2023/12/05 08:18:21;;;;;;;124.82;49.92;;;2.60;99.90;;;;;;5075618;28;20044;-76
2023/12/05 08:20:47;;;;;;;104.78;45.03;;;2.60;99.90;;;;;;5076180;28;20059;-77
2023/12/05 08:23:14;;;;;;;106.47;42.90;;;2.70;99.90;;;;;;5073797;28;20408;-79
2023/12/05 08:25:40;;;;;;;127.55;51.53;;;2.70;99.90;;;;;;5079893;28;20502;-79
2023/12/05 08:28:06;;;;;;;106.88;46.35;;;2.70;99.90;;;;;;5077850;28;20043;-79
2023/12/05 08:30:33;;;;;;;120.57;47.93;;;2.70;99.90;;;;;;5079518;28;20028;-77
2023/12/05 08:33:00;;;;;;;125.37;51.90;;;2.70;99.90;;;;;;5073757;28;20677;-77
2023/12/05 08:35:26;;;;;;;117.32;46.92;;;2.70;99.90;;;;;;5072619;28;20821;-80
2023/12/05 08:37:53;;;;;;;102.78;43.70;;;2.70;99.90;;;;;;5085269;28;20382;-77
2023/12/05 08:40:19;;;;;;;103.73;44.00;;;2.70;99.90;;;;;;5077213;28;20035;-79
2023/12/05 08:42:45;;;;;;;113.60;43.93;;;2.70;99.90;;;;;;5083515;28;20039;-77
2023/12/05 08:45:12;;;;;;;108.20;46.00;;;2.80;99.90;;;;;;5073768;28;20039;-81
2023/12/05 08:47:39;;;;;;;92.82;40.40;;;2.80;99.90;;;;;;5085847;28;20032;-75
2023/12/05 08:50:07;;;;;;;101.20;42.83;;;2.80;99.90;;;;;;5074643;28;20040;-79
2023/12/05 08:52:34;;;;;;;109.77;44.73;;;2.80;99.90;;;;;;5083067;28;20704;-76
2023/12/05 08:55:00;;;;;;;118.97;47.30;;;2.80;99.90;;;;;;5072559;28;20027;-77
2023/12/05 08:57:27;;;;;;;123.13;47.78;;;2.80;99.90;;;;;;5089384;27;20036;-78
2023/12/05 08:59:53;;;;;;;98.53;41.23;;;2.80;99.90;;;;;;5076230;28;20039;-78
2023/12/05 09:02:20;;;;;;;96.55;39.72;;;2.80;99.90;;;;;;5075483;28;20465;-79
2023/12/05 09:04:47;;;;;;;107.40;43.77;;;2.80;99.90;;;;;;5068967;28;20020;-78
2023/12/05 09:07:13;;;;;;;90.85;38.65;;;2.90;99.90;;;;;;5068352;28;20042;-79
2023/12/05 09:09:41;;;;;;;100.03;41.13;;;2.90;99.90;;;;;;5075413;28;20040;-77
2023/12/05 09:12:08;;;;;;;104.15;41.42;;;2.90;99.90;;;;;;5078575;28;20023;-80
2023/12/05 09:14:35;;;;;;;100.97;41.80;;;2.90;99.90;;;;;;5097016;27;20032;-79
2023/12/05 09:17:03;;;;;;;93.90;40.20;;;2.90;99.90;;;;;;5076931;28;20422;-78
2023/12/05 09:19:29;;;;;;;107.55;45.20;;;2.90;99.90;;;;;;5070395;28;20024;-78
2023/12/05 09:21:56;;;;;;;95.93;40.47;;;2.90;99.90;;;;;;5071799;28;20517;-78
2023/12/05 09:24:22;;;;;;;100.20;40.78;;;2.90;99.90;;;;;;5071702;28;20410;-78
2023/12/05 09:26:48;;;;;;;104.50;42.70;;;2.90;99.90;;;;;;5090264;28;20047;-78
2023/12/05 09:29:15;;;;;;;108.28;45.05;;;2.90;99.90;;;;;;5054998;28;20501;-79
2023/12/05 09:31:41;;;;;;;87.15;36.20;;;2.90;99.90;;;;;;5069182;28;20047;-78
2023/12/05 09:34:07;;;;;;;101.25;41.03;;;2.90;99.90;;;;;;5087310;28;20036;-80
2023/12/05 09:36:34;;;;;;;99.60;43.50;;;3.00;99.90;;;;;;5072628;28;20622;-80
2023/12/05 09:39:00;;;;;;;92.93;40.58;;;3.00;99.90;;;;;;5074115;28;20038;-78
2023/12/05 09:41:27;;;;;;;98.07;42.35;;;3.00;99.90;;;;;;5074297;28;20043;-76
2023/12/05 09:43:55;;;;;;;105.20;45.38;;;3.00;99.90;;;;;;5091498;28;20036;-80
2023/12/05 09:46:24;;;;;;;81.55;37.90;;;2.90;99.90;;;;;;5077306;28;20388;-77
2023/12/05 09:48:57;;;;;;;98.25;39.78;;;2.90;99.90;;;;;;5072034;28;20039;-80
2023/12/05 09:51:24;;;;;;;;;;;2.90;99.90;;;;;;5064573;28;20024;-78
2023/12/05 09:53:53;;;;;;;84.57;37.92;;;2.90;99.90;;;;;;5073892;28;19918;-76
2023/12/05 09:56:20;;;;;;;90.90;39.63;;;2.90;99.90;;;;;;5078135;28;20047;-78
2023/12/05 09:58:47;;;;;;;87.68;39.13;;;2.90;99.90;;;;;;5112720;27;20035;-79
2023/12/05 10:01:17;;;;;;;84.25;36.63;;;2.90;99.90;;;;;;5069516;28;20032;-78
2023/12/05 10:03:44;;;;;;;90.18;39.80;;;2.90;99.90;;;;;;5098850;28;20043;-79
2023/12/05 10:06:11;;;;;;;88.15;37.65;;;2.90;99.90;;;;;;5063800;28;20047;-77
2023/12/05 10:08:39;;;;;;;85.95;38.10;;;2.90;99.90;;;;;;5077946;28;20043;-75
2023/12/05 10:11:08;;;;;;;101.75;40.47;;;2.90;99.90;;;;;;5079564;28;20039;-77
2023/12/05 10:13:37;;;;;;;92.22;41.38;;;2.90;99.90;;;;;;5077111;28;20029;-78
2023/12/05 10:16:05;;;;;;;88.35;38.75;;;2.90;99.90;;;;;;5088231;28;20043;-77
2023/12/05 10:18:33;;;;;;;84.97;37.38;;;2.90;99.90;;;;;;5076840;28;20410;-77
2023/12/05 10:21:00;;;;;;;102.53;42.90;;;3.00;99.90;;;;;;5061930;28;20038;-79
2023/12/05 10:23:26;;;;;;;92.10;39.30;;;3.00;99.90;;;;;;5071367;28;20039;-79
2023/12/05 10:25:53;;;;;;;92.25;39.40;;;3.00;99.90;;;;;;5074016;28;20531;-77
2023/12/05 10:28:19;;;;;;;95.10;43.75;;;3.00;99.90;;;;;;5072124;28;20036;-76
2023/12/05 10:30:45;;;;;;;90.57;40.17;;;3.00;99.90;;;;;;5075347;28;20038;-77
2023/12/05 10:33:13;;;;;;;86.93;38.80;;;3.00;99.90;;;;;;5070078;28;20604;-77
2023/12/05 10:35:43;;;;;;;89.47;39.00;;;3.10;99.90;;;;;;5108074;27;20482;-77
2023/12/05 10:38:14;;;;;;;80.03;36.45;;;3.10;99.90;;;;;;5066954;28;20397;-78
2023/12/05 10:40:55;;;;;;;105.18;41.38;;;3.20;99.90;;;;;;5095113;28;20028;-78
2023/12/05 10:43:23;;;;;;;101.43;41.40;;;3.20;99.90;;;;;;5073472;28;20505;-76
2023/12/05 10:45:50;;;;;;;99.50;42.80;;;3.20;99.90;;;;;;5070913;28;20043;-78
2023/12/05 10:48:17;;;;;;;100.25;41.47;;;3.30;99.90;;;;;;5077167;28;20490;-78
2023/12/05 10:50:47;;;;;;;94.07;40.55;;;3.30;99.90;;;;;;5091909;28;20047;-78
2023/12/05 10:53:14;;;;;;;96.43;40.55;;;3.30;99.90;;;;;;5107154;27;20047;-78
2023/12/05 10:55:41;;;;;;;100.78;41.42;;;3.30;99.90;;;;;;5074025;28;20032;-78
2023/12/05 10:58:09;;;;;;;116.53;45.63;;;3.30;99.90;;;;;;5074634;28;20046;-78
2023/12/05 11:00:37;;;;;;;102.72;40.53;;;3.30;99.90;;;;;;5080165;28;20036;-73
2023/12/05 11:03:03;;;;;;;89.22;37.10;;;3.30;99.90;;;;;;5088872;28;20039;-79
2023/12/05 11:05:33;;;;;;;101.53;42.05;;;3.30;99.90;;;;;;5086369;28;20047;-78
2023/12/05 11:08:01;;;;;;;99.70;40.20;;;3.30;99.90;;;;;;5075721;28;20035;-78
2023/12/05 11:10:28;;;;;;;108.73;44.57;;;3.30;99.90;;;;;;5083918;28;20046;-78
2023/12/05 11:12:58;;;;;;;102.75;42.28;;;3.30;99.90;;;;;;5059857;28;20395;-79
2023/12/05 11:15:29;;;;;;;111.35;45.38;;;3.30;99.90;;;;;;5094147;27;20032;-77
2023/12/05 11:18:04;;;;;;;92.28;41.15;;;3.30;99.90;;;;;;5093488;28;20043;-78
2023/12/05 11:20:56;;;;;;;107.15;46.35;;;3.30;99.90;;;;;;5072441;28;20031;-78
2023/12/05 11:23:37;;;;;;;108.80;43.60;;;3.30;99.90;;;;;;5076159;28;20036;-75
2023/12/05 11:26:35;;;;;;;98.82;37.72;;;3.30;99.90;;;;;;5076719;28;20990;-78
2023/12/05 11:29:13;;;;;;;96.18;38.25;;;3.30;99.90;;;;;;5094160;28;20035;-78
2023/12/05 11:32:21;;;;;;;98.88;38.10;;;3.30;99.90;;;;;;5071104;28;20047;-77
2023/12/05 11:35:11;;;;;;;83.53;32.35;;;3.30;99.90;;;;;;5073785;28;20039;-76
2023/12/05 11:37:47;;;;;;;93.20;37.88;;;3.30;99.90;;;;;;5049654;28;20118;-76
2023/12/05 11:40:14;;;;;;;116.82;46.55;;;3.30;99.90;;;;;;5094738;28;20046;-75
2023/12/05 11:43:08;;;;;;;92.60;38.75;;;3.30;99.90;;;;;;5079910;28;20069;-75
2023/12/05 11:45:43;;;;;;;98.00;39.80;;;3.30;99.90;;;;;;5077305;28;20511;-76
2023/12/05 11:48:21;;;;;;;96.30;38.92;;;3.30;99.90;;;;;;5072737;28;20523;-77
2023/12/05 11:50:48;;;;;;;86.95;35.67;;;3.20;99.90;;;;;;5049989;28;20048;-74
2023/12/05 11:53:20;;;;;;;78.68;35.78;;;3.20;99.90;;;;;;5098513;28;20039;-76
2023/12/05 11:55:47;;;;;;;;;;;3.20;99.90;;;;;;5094694;28;20039;-77
2023/12/05 11:58:34;;;;;;;81.65;36.75;;;3.20;99.90;;;;;;5075253;28;19919;-75
2023/12/05 12:01:09;;;;;;;77.15;34.42;;;3.20;99.90;;;;;;5073404;27;20039;-76
2023/12/05 12:03:50;;;;;;;78.40;33.15;;;3.20;99.90;;;;;;5079154;28;20028;-76
2023/12/05 12:06:21;;;;;;;88.07;37.55;;;3.20;99.90;;;;;;5072789;28;20521;-75
2023/12/05 12:08:51;;;;;;;99.28;38.33;;;3.20;99.90;;;;;;5074051;28;20038;-77
2023/12/05 12:11:20;;;;;;;103.00;37.72;;;3.20;99.90;;;;;;5077261;28;20405;-75
2023/12/05 12:13:48;;;;;;;92.38;34.47;;;3.20;99.90;;;;;;5078634;28;20040;-77
2023/12/05 12:16:16;;;;;;;123.78;45.08;;;3.20;99.90;;;;;;5072158;28;20048;-76
2023/12/05 12:18:42;;;;;;;114.30;42.33;;;3.20;99.90;;;;;;5095195;28;20047;-79
2023/12/05 12:21:09;;;;;;;98.35;39.42;;;3.10;99.90;;;;;;5072281;28;20035;-77
2023/12/05 12:23:35;;;;;;;111.35;42.30;;;3.10;99.90;;;;;;5081734;28;20139;-75
2023/12/05 12:26:02;;;;;;;105.33;42.57;;;3.10;99.90;;;;;;5088521;28;20035;-77
2023/12/05 12:28:32;;;;;;;116.15;40.83;;;3.10;99.90;;;;;;5070444;28;20486;-79
2023/12/05 12:31:00;;;;;;;105.28;38.70;;;3.10;99.90;;;;;;5073831;28;20402;-75
2023/12/05 12:33:36;;;;;;;115.53;39.22;;;3.10;99.90;;;;;;5079714;28;20474;-78
2023/12/05 12:36:03;;;;;;;131.10;45.13;;;3.20;99.90;;;;;;5074677;28;20479;-77